Time;durP1;ratioP1;P1;durP2;ratioP2;P2;SDS_P1;SDS_P2;PMS_P1;PMS_P2;Temp;Humidity;BMP_temperature;BMP_pressure;BME280_temperature;BME280_humidity;BME280_pressure;Samples;Min_cycle;Max_cycle;Signal;HPM_P1;HPM_P2
2023/10/12 00:00:40;;;;;;;;;;;16.70;92.80;;;;;;5135676;27;20449;-62
2023/10/12 00:03:07;;;;;;;;;;;16.70;92.90;;;;;;5135694;27;19986;-63
2023/10/12 00:05:34;;;;;;;;;;;16.60;92.90;;;;;;5135536;27;20083;-62
2023/10/12 00:08:08;;;;;;;;;;;16.60;92.50;;;;;;5134507;27;20518;-62
2023/10/12 00:10:44;;;;;;;;;;;16.60;92.90;;;;;;5135389;27;20560;-62
2023/10/12 00:13:11;;;;;;;;;;;16.50;93.30;;;;;;5135454;27;19987;-63
2023/10/12 00:15:45;;;;;;;;;;;16.50;93.50;;;;;;5135463;27;19987;-63
2023/10/12 00:18:13;;;;;;;;;;;16.50;93.60;;;;;;5135731;27;19980;-63
2023/10/12 00:20:39;;;;;;;;;;;16.40;93.70;;;;;;5135142;27;20431;-62
2023/10/12 00:23:15;;;;;;;;;;;16.40;93.90;;;;;;5135417;27;19981;-62
2023/10/12 00:25:58;;;;;;;;;;;16.30;93.80;;;;;;5135351;27;20520;-62
2023/10/12 00:28:28;;;;;;;;;;;16.30;94.00;;;;;;5135344;27;20178;-62
2023/10/12 00:31:05;;;;;;;;;;;16.30;94.10;;;;;;5135176;27;20255;-62
2023/10/12 00:33:31;;;;;;;;;;;16.30;94.30;;;;;;5135155;27;20457;-62
2023/10/12 00:36:01;;;;;;;;;;;16.30;94.00;;;;;;5135005;27;19985;-63
2023/10/12 00:38:30;;;;;;;;;;;16.20;94.60;;;;;;5134996;27;19988;-63
2023/10/12 00:41:07;;;;;;;;;;;16.20;94.30;;;;;;5135041;27;20106;-63
2023/10/12 00:43:36;;;;;;;;;;;16.20;94.40;;;;;;5134981;27;19987;-63
2023/10/12 00:46:58;;;;;;;;;;;16.20;94.00;;;;;;5134883;27;19987;-61
2023/10/12 00:51:40;;;;;;;;;;;16.20;93.80;;;;;;5134818;27;20369;-63
2023/10/12 00:54:10;;;;;;;;;;;16.10;94.30;;;;;;5134721;27;20580;-63
2023/10/12 00:56:36;;;;;;;;;;;16.00;94.70;;;;;;5134740;27;19995;-62
2023/10/12 00:59:03;;;;;;;;;;;16.00;94.60;;;;;;5134872;27;19984;-63
2023/10/12 01:01:31;;;;;;;;;;;16.00;94.40;;;;;;5134793;27;20478;-62
2023/10/12 01:03:57;;;;;;;;;;;16.00;93.90;;;;;;5134421;27;19987;-63
2023/10/12 01:08:51;;;;;;;;;;;15.90;94.70;;;;;;5134950;28;20448;-62
2023/10/12 01:11:20;;;;;;;;;;;15.80;95.30;;;;;;5134508;28;20004;-61
2023/10/12 01:14:06;;;;;;;;;;;15.70;95.30;;;;;;5134611;28;19980;-63
2023/10/12 01:19:22;;;;;;;;;;;15.70;96.10;;;;;;5136727;27;20027;-62
2023/10/12 01:21:51;;;;;;;;;;;15.60;96.80;;;;;;5138780;27;20469;-61
2023/10/12 01:24:17;;;;;;;;;;;15.60;97.20;;;;;;5138896;27;19980;-63
2023/10/12 01:26:53;;;;;;;;;;;15.60;96.90;;;;;;5138782;27;20079;-62
2023/10/12 01:29:21;;;;;;;;;;;15.60;97.00;;;;;;5138722;27;20050;-63
2023/10/12 01:32:20;;;;;;;;;;;15.60;96.90;;;;;;5138605;27;20004;-61
2023/10/12 01:34:44;;;;;;;;;;;15.60;97.50;;;;;;5138145;27;20030;-62
2023/10/12 01:37:20;;;;;;;;;;;15.60;97.10;;;;;;5138615;27;20374;-63
2023/10/12 01:39:55;;;;;;;;;;;15.50;97.30;;;;;;5138480;27;19981;-62
2023/10/12 01:42:21;;;;;;;;;;;15.50;97.30;;;;;;5138547;27;20029;-62
2023/10/12 01:44:47;;;;;;;;;;;15.50;97.60;;;;;;5138321;27;19988;-62
2023/10/12 01:47:15;;;;;;;;;;;15.50;97.70;;;;;;5138203;27;19980;-62
2023/10/12 01:49:41;;;;;;;;;;;15.40;98.00;;;;;;5138195;27;20016;-63
2023/10/12 01:52:08;;;;;;;;;;;15.40;98.30;;;;;;5138071;27;20103;-63
2023/10/12 01:54:42;;;;;;;;;;;15.40;97.80;;;;;;5138168;27;20454;-62
2023/10/12 01:57:08;;;;;;;;;;;15.50;97.60;;;;;;5138198;27;20038;-62
2023/10/12 01:59:34;;;;;;;;;;;15.40;97.60;;;;;;5138005;27;19988;-63
2023/10/12 02:02:13;;;;;;;;;;;15.50;97.30;;;;;;5137907;27;20338;-62
2023/10/12 02:04:40;;;;;;;;;;;15.40;97.60;;;;;;5138093;27;20449;-62
2023/10/12 02:07:10;;;;;;;;;;;15.40;97.30;;;;;;5137888;27;19981;-63
2023/10/12 02:09:36;;;;;;;;;;;15.40;96.20;;;;;;5137961;27;20349;-63
2023/10/12 02:12:11;;;;;;;;;;;15.30;96.00;;;;;;5137841;27;20004;-62
2023/10/12 02:14:39;;;;;;;;;;;15.30;96.40;;;;;;5137886;27;20355;-63
2023/10/12 02:17:08;;;;;;;;;;;15.30;96.30;;;;;;5137663;27;20069;-63
2023/10/12 02:19:44;;;;;;;;;;;15.20;96.40;;;;;;5137642;27;19985;-63
2023/10/12 02:22:28;;;;;;;;;;;15.20;96.40;;;;;;5137803;27;19988;-63
2023/10/12 02:25:17;;;;;;;;;;;15.20;96.60;;;;;;5137573;27;19984;-62
2023/10/12 02:27:54;;;;;;;;;;;15.20;96.80;;;;;;5137578;27;19980;-63
2023/10/12 02:30:21;;;;;;;;;;;15.20;96.60;;;;;;5136312;27;20012;-63
2023/10/12 02:32:50;;;;;;;;;;;15.10;96.90;;;;;;5137366;27;20034;-62
2023/10/12 02:35:19;;;;;;;;;;;15.10;96.80;;;;;;5137373;27;19980;-62
2023/10/12 02:37:46;;;;;;;;;;;15.10;96.80;;;;;;5137500;27;19987;-62
2023/10/12 02:40:11;;;;;;;;;;;15.10;96.90;;;;;;5137417;27;19986;-62
2023/10/12 02:42:46;;;;;;;;;;;15.00;97.40;;;;;;5137204;27;19981;-62
2023/10/12 02:47:45;;;;;;;;;;;14.90;97.40;;;;;;5137261;27;20327;-62
2023/10/12 02:52:38;;;;;;;;;;;14.90;96.20;;;;;;5137391;27;20071;-62
2023/10/12 02:55:49;;;;;;;;;;;14.90;96.10;;;;;;5136984;27;19996;-62
2023/10/12 02:57:56;;;;;;;;;;;14.90;95.90;;;;;;5125729;27;19990;-63
2023/10/12 03:00:27;;;;;;;;;;;14.80;95.90;;;;;;5136782;27;20370;-61
2023/10/12 03:02:53;;;;;;;;;;;14.80;96.30;;;;;;5136819;27;20006;-62
2023/10/12 03:05:31;;;;;;;;;;;14.80;96.60;;;;;;5136862;27;19984;-63
2023/10/12 03:08:05;;;;;;;;;;;14.80;96.60;;;;;;5136750;27;19987;-62
2023/10/12 03:10:31;;;;;;;;;;;14.70;96.90;;;;;;5136776;27;20102;-63
2023/10/12 03:12:57;;;;;;;;;;;14.70;97.00;;;;;;5136759;27;20025;-62
2023/10/12 03:15:40;;;;;;;;;;;14.70;97.20;;;;;;5118378;27;20384;-61
2023/10/12 03:18:08;;;;;;;;;;;14.80;97.30;;;;;;5136678;27;20075;-63
2023/10/12 03:20:35;;;;;;;;;;;14.70;97.00;;;;;;5136538;27;20096;-63
2023/10/12 03:23:12;;;;;;;;;;;14.60;97.50;;;;;;5136597;27;19980;-63
2023/10/12 03:25:43;;;;;;;;;;;14.60;98.30;;;;;;5136434;27;19981;-63
2023/10/12 03:28:13;;;;;;;;;;;14.60;98.60;;;;;;5136286;27;19994;-63
2023/10/12 03:30:46;;;;;;;;;;;14.60;98.90;;;;;;5136177;27;20007;-63
2023/10/12 03:33:15;;;;;;;;;;;14.60;98.60;;;;;;5136233;27;19984;-63
2023/10/12 03:36:02;;;;;;;;;;;14.60;98.70;;;;;;5136323;27;20006;-63
2023/10/12 03:38:32;;;;;;;;;;;14.60;98.30;;;;;;5136130;27;20029;-61
2023/10/12 03:44:11;;;;;;;;;;;14.50;98.90;;;;;;5072709;28;20011;-64
2023/10/12 03:46:36;;;;;;;;;;;14.50;98.90;;;;;;5128149;27;20027;-63
2023/10/12 03:52:13;;;;;;;;;;;14.40;98.60;;;;;;5072646;28;20020;-62
2023/10/12 03:54:39;;;;;;;;;;;14.40;98.50;;;;;;5127284;27;20053;-63
2023/10/12 03:57:19;;;;;;;;;;;14.40;98.20;;;;;;5135930;27;20023;-63
2023/10/12 04:02:30;;;;;;;;;;;14.40;97.70;;;;;;5120619;27;19991;-62
2023/10/12 04:05:16;;;;;;;;;;;14.40;97.80;;;;;;5135862;27;19980;-63
2023/10/12 04:11:13;;;;;;;;;;;14.30;98.00;;;;;;5135482;27;20481;-62
2023/10/12 04:13:07;;;;;;;;;;;14.30;97.80;;;;;;5135136;27;19984;-63
2023/10/12 04:15:36;;;;;;;;;;;14.30;97.80;;;;;;5135762;27;19991;-63
2023/10/12 04:18:07;;;;;;;;;;;14.30;98.10;;;;;;5135453;27;20375;-63
2023/10/12 04:20:33;;;;;;;;;;;14.30;97.60;;;;;;5135398;27;20031;-63
2023/10/12 04:25:46;;;;;;;;;;;14.20;97.80;;;;;;5135343;27;20032;-62
2023/10/12 04:28:33;;;;;;;;;;;14.20;98.00;;;;;;5135159;27;20080;-63
2023/10/12 04:33:29;;;;;;;;;;;14.20;97.40;;;;;;5135337;27;20054;-62
2023/10/12 04:43:52;;;;;;;;;;;14.10;97.60;;;;;;5134945;27;19980;-62
2023/10/12 04:48:59;;;;;;;;;;;14.00;98.50;;;;;;5134702;27;20016;-62
2023/10/12 04:51:30;;;;;;;;;;;13.90;98.90;;;;;;5134812;27;20061;-63
2023/10/12 04:54:16;;;;;;;;;;;13.90;99.20;;;;;;5134243;27;20148;-63
2023/10/12 04:56:52;;;;;;;;;;;13.80;99.70;;;;;;5131733;27;19988;-62
2023/10/12 04:59:26;;;;;;;;;;;13.80;99.90;;;;;;5121177;27;20330;-62
2023/10/12 05:04:48;;;;;;;;;;;13.90;99.90;;;;;;5134064;27;19980;-62
2023/10/12 05:09:49;;;;;;;;;;;14.00;98.80;;;;;;5130429;28;20082;-63
2023/10/12 05:12:15;;;;;;;;;;;14.00;98.80;;;;;;5111832;28;20363;-63
2023/10/12 05:14:40;;;;;;;;;;;14.00;98.80;;;;;;5112567;28;19988;-63
2023/10/12 05:17:08;;;;;;;;;;;14.00;99.00;;;;;;5116927;28;19984;-62
2023/10/12 05:19:35;;;;;;;;;;;14.00;99.10;;;;;;5129934;28;20434;-63
2023/10/12 05:22:00;;;;;;;;;;;14.00;99.00;;;;;;5134484;28;20496;-63
2023/10/12 05:24:26;;;;;;;;;;;14.00;99.20;;;;;;5134498;28;20045;-63
2023/10/12 05:27:09;;;;;;;;;;;14.10;99.40;;;;;;5134152;28;19980;-62
2023/10/12 05:29:38;;;;;;;;;;;14.00;99.30;;;;;;5132742;28;20075;-63
2023/10/12 05:32:13;;;;;;;;;;;14.10;99.30;;;;;;5126933;28;20008;-63
2023/10/12 05:37:12;;;;;;;;;;;14.20;98.80;;;;;;5115948;28;19981;-63
2023/10/12 05:39:46;;;;;;;;;;;14.20;99.10;;;;;;5148060;27;20449;-64
2023/10/12 05:42:14;;;;;;;;;;;14.20;98.80;;;;;;5123666;27;19988;-63
2023/10/12 05:44:43;;;;;;;;;;;14.20;98.80;;;;;;5131356;28;20354;-63
2023/10/12 05:47:11;;;;;;;;;;;14.20;98.80;;;;;;5133374;28;20346;-63
2023/10/12 05:49:37;;;;;;;;;;;14.30;98.70;;;;;;5115652;28;20043;-63
2023/10/12 05:52:05;;;;;;;;;;;14.30;98.80;;;;;;5134192;28;20011;-62
2023/10/12 05:54:31;;;;;;;;;;;14.30;98.90;;;;;;5133342;28;19996;-63
2023/10/12 05:56:57;;;;;;;;;;;14.40;98.70;;;;;;5133999;28;20071;-62
2023/10/12 05:59:24;;;;;;;;;;;14.30;98.70;;;;;;5099448;28;19992;-65
2023/10/12 06:01:50;;;;;;;;;;;14.40;98.90;;;;;;5094949;28;19985;-65
2023/10/12 06:04:15;;;;;;;;;;;14.40;99.20;;;;;;5113691;28;20063;-64
2023/10/12 06:06:42;;;;;;;;;;;14.40;99.20;;;;;;5119093;27;19984;-63
2023/10/12 06:09:20;;;;;;;;;;;14.40;99.30;;;;;;5135764;27;20100;-63
2023/10/12 06:11:47;;;;;;;;;;;14.50;99.10;;;;;;5136471;27;20004;-66
2023/10/12 06:14:20;;;;;;;;;;;14.50;99.30;;;;;;5136436;27;19981;-64
2023/10/12 06:16:46;;;;;;;;;;;14.50;99.20;;;;;;5135624;27;20078;-65
2023/10/12 06:19:28;;;;;;;;;;;14.60;99.40;;;;;;5134932;27;20358;-65
2023/10/12 06:22:13;;;;;;;;;;;14.50;99.70;;;;;;5134310;27;19984;-65
2023/10/12 06:24:44;;;;;;;;;;;14.40;99.90;;;;;;5135146;27;19980;-64
2023/10/12 06:29:44;;;;;;;;;;;14.30;99.90;;;;;;5136637;27;19984;-63
2023/10/12 06:32:16;;;;;;;;;;;15.00;99.90;;;;;;5134324;27;20004;-64
2023/10/12 06:34:42;;;;;;;;;;;18.00;94.50;;;;;;5134764;27;19988;-66
2023/10/12 06:37:49;;;;;;;;;;;21.20;71.60;;;;;;5134723;27;20004;-65
2023/10/12 06:42:39;;;;;;;;;;;25.80;50.60;;;;;;5134918;27;20124;-65
2023/10/12 06:45:07;;;;;;;;;;;27.20;45.90;;;;;;5134871;27;19999;-65
2023/10/12 06:47:42;;;;;;;;;;;28.20;42.90;;;;;;5115616;27;20033;-62
2023/10/12 06:50:19;;;;;;;;;;;29.00;41.50;;;;;;5096291;28;20050;-66
2023/10/12 06:52:45;;;;;;;;;;;29.70;39.70;;;;;;5092988;28;20419;-65
2023/10/12 06:55:21;;;;;;;;;;;30.30;38.60;;;;;;5088939;28;20023;-65
2023/10/12 06:57:52;;;;;;;;;;;30.80;37.50;;;;;;5090836;28;20018;-64
2023/10/12 07:00:29;;;;;;;;;;;31.10;36.50;;;;;;5086950;28;20078;-67
2023/10/12 07:02:54;;;;;;;;;;;31.50;36.60;;;;;;5092593;28;20457;-64
2023/10/12 07:05:28;;;;;;;;;;;32.10;36.00;;;;;;5091286;28;19985;-68
2023/10/12 07:07:54;;;;;;;;;;;32.70;35.60;;;;;;5091707;28;20012;-62
2023/10/12 07:10:29;;;;;;;;;;;33.30;34.80;;;;;;5091332;28;20081;-63
2023/10/12 07:12:59;;;;;;;;;;;33.90;34.00;;;;;;5092886;28;20079;-68
2023/10/12 07:15:40;;;;;;;;;;;34.10;33.40;;;;;;5092563;28;19997;-64
2023/10/12 07:18:07;;;;;;;;;;;34.50;33.10;;;;;;5093601;28;20017;-65
2023/10/12 07:23:05;;;;;;;;;;;35.10;32.20;;;;;;5094105;28;20419;-65
2023/10/12 07:25:35;;;;;;;;;;;35.50;31.70;;;;;;5093350;28;19993;-64
2023/10/12 07:28:01;;;;;;;;;;;35.90;31.50;;;;;;5094405;28;19992;-65
2023/10/12 07:32:56;;;;;;;;;;;36.70;30.50;;;;;;5094169;28;19996;-67
2023/10/12 07:35:34;;;;;;;;;;;36.90;30.10;;;;;;5087909;28;19989;-63
2023/10/12 07:38:14;;;;;;;;;;;37.00;30.10;;;;;;5091541;28;20343;-65
2023/10/12 07:43:20;;;;;;;;;;;37.40;29.60;;;;;;5091050;28;20465;-62
2023/10/12 07:45:48;;;;;;;;;;;37.80;29.40;;;;;;5091499;28;20011;-66
2023/10/12 07:48:29;;;;;;;;;;;38.00;29.60;;;;;;5091457;27;20092;-64
2023/10/12 07:50:55;;;;;;;;;;;38.10;29.20;;;;;;5112863;27;20118;-65
2023/10/12 07:53:24;;;;;;;;;;;38.20;28.70;;;;;;5132912;27;20155;-66
2023/10/12 07:55:55;;;;;;;;;;;38.20;28.90;;;;;;5132069;27;20447;-68
2023/10/12 07:58:21;;;;;;;;;;;38.40;29.10;;;;;;5113552;27;19988;-68
2023/10/12 08:00:51;;;;;;;;;;;38.70;28.40;;;;;;5131269;27;19992;-67
2023/10/12 08:03:25;;;;;;;;;;;39.00;28.30;;;;;;5132706;27;19991;-68
2023/10/12 08:05:56;;;;;;;;;;;39.30;28.10;;;;;;5128030;27;19980;-68
2023/10/12 08:08:34;;;;;;;;;;;39.40;27.90;;;;;;5113845;27;20064;-67
2023/10/12 08:11:08;;;;;;;;;;;39.50;27.50;;;;;;5127432;27;20073;-69
2023/10/12 08:13:39;;;;;;;;;;;39.50;27.40;;;;;;5132957;27;20009;-67
2023/10/12 08:16:05;;;;;;;;;;;39.60;27.40;;;;;;5131494;27;20067;-68
2023/10/12 08:32:03;;;;;;;;;;;38.80;28.50;;;;;;5127230;27;20417;-67
2023/10/12 08:39:50;;;;;;;;;;;38.40;29.20;;;;;;5129296;27;19996;-64
2023/10/12 08:45:17;;;;;;;;;;;37.60;28.70;;;;;;5117136;27;20039;-67
2023/10/12 08:47:49;;;;;;;;;;;37.10;29.50;;;;;;5118542;27;19990;-68
2023/10/12 08:52:51;;;;;;;;;;;35.90;30.00;;;;;;5126383;27;20015;-68
2023/10/12 08:55:26;;;;;;;;;;;35.50;29.90;;;;;;5127938;27;20390;-69
2023/10/12 08:58:12;;;;;;;;;;;35.20;30.10;;;;;;5128927;27;19984;-68
2023/10/12 09:03:05;;;;;;;;;;;34.70;30.90;;;;;;5120105;27;20109;-67
2023/10/12 09:05:35;;;;;;;;;;;34.50;32.20;;;;;;5118813;27;19994;-68
2023/10/12 09:13:30;;;;;;;;;;;34.10;35.50;;;;;;5127356;28;20029;-67
2023/10/12 09:15:57;;;;;;;;;;;34.20;35.00;;;;;;5111607;28;20035;-67
2023/10/12 09:18:24;;;;;;;;;;;34.10;31.50;;;;;;5111976;28;19996;-67
2023/10/12 09:23:31;;;;;;;;;;;34.00;31.70;;;;;;5129885;28;19984;-68
2023/10/12 09:26:30;;;;;;;;;;;34.00;32.70;;;;;;5132171;28;20575;-64
2023/10/12 09:31:48;;;;;;;;;;;34.10;34.30;;;;;;5129543;28;20004;-65
2023/10/12 09:36:37;;;;;;;;;;;34.40;33.00;;;;;;5125402;28;20037;-64
2023/10/12 09:39:12;;;;;;;;;;;34.40;33.50;;;;;;5126538;27;20291;-64
2023/10/12 09:41:38;;;;;;;;;;;34.60;33.20;;;;;;5130488;27;19983;-64
2023/10/12 09:44:10;;;;;;;;;;;34.70;32.10;;;;;;5131389;27;20028;-64
2023/10/12 09:46:36;;;;;;;;;;;34.70;34.60;;;;;;5130691;27;19981;-64
2023/10/12 09:49:06;;;;;;;;;;;34.80;33.90;;;;;;5131764;27;20129;-64
2023/10/12 09:51:36;;;;;;;;;;;34.60;33.70;;;;;;5114457;27;20009;-64
2023/10/12 09:54:53;;;;;;;;;;;34.70;32.20;;;;;;5132325;27;20361;-65
2023/10/12 09:56:57;;;;;;;;;;;34.70;32.30;;;;;;5119796;27;20358;-63
2023/10/12 09:59:23;;;;;;;;;;;34.30;34.90;;;;;;5132774;27;19995;-66
2023/10/12 10:01:49;;;;;;;;;;;34.40;35.10;;;;;;5133256;27;19980;-63
2023/10/12 10:06:55;;;;;;;;;;;34.70;33.00;;;;;;5134366;27;20015;-64
2023/10/12 10:09:37;;;;;;;;;;;34.60;33.40;;;;;;5114970;27;20027;-65
2023/10/12 10:12:05;;;;;;;;;;;34.80;34.30;;;;;;5133388;27;20096;-66
2023/10/12 10:14:39;;;;;;;;;;;35.10;32.70;;;;;;5133013;27;19984;-66
2023/10/12 10:17:11;;;;;;;;;;;35.30;31.80;;;;;;5134317;27;20011;-64
2023/10/12 10:19:38;;;;;;;;;;;35.20;32.70;;;;;;5134995;27;20336;-64
2023/10/12 10:22:08;;;;;;;;;;;35.10;34.10;;;;;;5115316;27;19989;-66
2023/10/12 10:24:36;;;;;;;;;;;35.10;34.70;;;;;;5116024;27;19993;-65
2023/10/12 10:27:10;;;;;;;;;;;35.30;31.50;;;;;;5134663;27;20430;-69
2023/10/12 10:29:57;;;;;;;;;;;35.40;31.60;;;;;;5135028;27;20099;-66
2023/10/12 10:32:29;;;;;;;;;;;35.00;34.00;;;;;;5135043;27;20004;-65
2023/10/12 10:34:59;;;;;;;;;;;35.20;31.30;;;;;;5133504;27;20069;-64
2023/10/12 10:37:38;;;;;;;;;;;35.50;32.00;;;;;;5133388;27;19988;-64
2023/10/12 10:40:07;;;;;;;;;;;35.60;33.20;;;;;;5133443;27;19980;-65
2023/10/12 10:42:36;;;;;;;;;;;35.40;30.70;;;;;;5116325;27;20010;-64
2023/10/12 10:45:12;;;;;;;;;;;35.60;30.50;;;;;;5135042;27;20395;-62
2023/10/12 10:47:42;;;;;;;;;;;35.80;31.60;;;;;;5135539;27;19984;-64
2023/10/12 10:50:15;;;;;;;;;;;36.00;30.80;;;;;;5115824;27;20065;-65
2023/10/12 10:52:44;;;;;;;;;;;36.00;29.80;;;;;;5134399;27;20004;-64
2023/10/12 10:55:11;;;;;;;;;;;36.00;32.10;;;;;;5136187;27;20000;-63
2023/10/12 10:57:39;;;;;;;;;;;35.70;31.10;;;;;;5135568;27;19991;-65
2023/10/12 11:00:15;;;;;;;;;;;35.70;31.50;;;;;;5133760;27;20062;-66
2023/10/12 11:02:41;;;;;;;;;;;35.90;31.80;;;;;;5133364;27;19980;-65
2023/10/12 11:05:10;;;;;;;;;;;36.10;32.30;;;;;;5134849;27;20323;-64
2023/10/12 11:07:39;;;;;;;;;;;36.30;30.70;;;;;;5128785;27;20013;-66
2023/10/12 11:10:06;;;;;;;;;;;36.40;29.00;;;;;;5101278;27;19985;-66
2023/10/12 11:12:36;;;;;;;;;;;36.20;29.00;;;;;;5122861;27;20412;-67
2023/10/12 11:15:07;;;;;;;;;;;36.30;29.90;;;;;;5118432;27;19981;-65
2023/10/12 11:17:56;;;;;;;;;;;36.40;29.00;;;;;;5128355;27;19988;-66
2023/10/12 11:20:35;;;;;;;;;;;36.40;29.90;;;;;;5121372;27;20076;-63
2023/10/12 11:23:06;;;;;;;;;;;36.40;30.20;;;;;;5126932;27;20004;-64
2023/10/12 11:25:39;;;;;;;;;;;36.40;29.90;;;;;;5122743;27;19992;-62
2023/10/12 11:28:26;;;;;;;;;;;36.60;28.50;;;;;;5110041;27;20436;-63
2023/10/12 11:30:52;;;;;;;;;;;36.80;28.10;;;;;;5128560;27;20073;-64
2023/10/12 11:33:25;;;;;;;;;;;36.80;27.60;;;;;;5127382;27;19985;-64
2023/10/12 11:35:53;;;;;;;;;;;36.60;27.20;;;;;;5130626;27;19998;-63
2023/10/12 11:38:21;;;;;;;;;;;36.50;28.70;;;;;;5125105;27;20045;-64
2023/10/12 11:40:57;;;;;;;;;;;36.60;29.00;;;;;;5099799;27;20448;-62
2023/10/12 11:43:29;;;;;;;;;;;36.80;27.40;;;;;;5124735;27;19987;-62
2023/10/12 11:46:01;;;;;;;;;;;36.90;28.20;;;;;;5126787;27;19992;-65
2023/10/12 11:48:28;;;;;;;;;;;37.00;28.10;;;;;;5132389;27;20012;-64
2023/10/12 11:50:55;;;;;;;;;;;37.00;27.60;;;;;;5126289;27;20008;-64
2023/10/12 11:53:21;;;;;;;;;;;37.10;27.30;;;;;;5130744;27;19999;-62
2023/10/12 11:55:51;;;;;;;;;;;37.10;27.60;;;;;;5113530;27;20369;-65
2023/10/12 11:58:19;;;;;;;;;;;37.20;26.50;;;;;;5130732;27;20472;-64
2023/10/12 12:00:45;;;;;;;;;;;37.20;26.30;;;;;;5131763;27;19989;-62
2023/10/12 12:03:11;;;;;;;;;;;37.40;26.30;;;;;;5131555;27;19995;-64
2023/10/12 12:05:36;;;;;;;;;;;37.70;26.30;;;;;;5130347;27;20398;-65
2023/10/12 12:08:13;;;;;;;;;;;37.80;26.40;;;;;;5113517;27;19993;-61
2023/10/12 12:10:45;;;;;;;;;;;37.80;26.10;;;;;;5133018;27;20011;-65
2023/10/12 12:13:15;;;;;;;;;;;37.80;26.40;;;;;;5132933;27;19986;-63
2023/10/12 12:15:44;;;;;;;;;;;38.00;25.60;;;;;;5113239;28;19980;-64
2023/10/12 12:18:19;;;;;;;;;;;38.20;25.90;;;;;;5112708;28;20007;-61
2023/10/12 12:20:47;;;;;;;;;;;38.10;25.50;;;;;;5113245;28;19984;-65
2023/10/12 12:23:13;;;;;;;;;;;37.80;25.80;;;;;;5112920;28;19981;-65
2023/10/12 12:25:39;;;;;;;;;;;37.40;26.80;;;;;;5110967;28;20030;-65
2023/10/12 12:28:07;;;;;;;;;;;37.20;26.90;;;;;;5113593;28;19984;-61
2023/10/12 12:30:39;;;;;;;;;;;37.30;26.60;;;;;;5113067;28;19987;-61
2023/10/12 12:33:08;;;;;;;;;;;37.50;26.90;;;;;;5112718;28;20327;-63
2023/10/12 12:35:36;;;;;;;;;;;37.60;25.90;;;;;;5113647;28;19985;-65
2023/10/12 12:38:06;;;;;;;;;;;37.70;25.60;;;;;;5113602;28;20423;-61
2023/10/12 12:40:38;;;;;;;;;;;37.70;25.90;;;;;;5113628;28;19981;-62
2023/10/12 12:43:10;;;;;;;;;;;37.70;25.30;;;;;;5114054;28;19992;-63
2023/10/12 12:45:35;;;;;;;;;;;37.70;27.50;;;;;;5113361;28;20118;-64
2023/10/12 12:48:02;;;;;;;;;;;37.90;25.00;;;;;;5114011;28;20020;-65
2023/10/12 12:50:28;;;;;;;;;;;38.00;24.70;;;;;;5115676;27;20021;-61
2023/10/12 12:52:54;;;;;;;;;;;38.00;25.40;;;;;;5134682;27;20008;-63
2023/10/12 12:55:22;;;;;;;;;;;38.00;25.90;;;;;;5134260;27;20085;-62
2023/10/12 12:57:47;;;;;;;;;;;37.90;24.30;;;;;;5134122;27;20007;-64
2023/10/12 13:00:21;;;;;;;;;;;37.90;25.10;;;;;;5134130;27;20425;-60
2023/10/12 13:02:47;;;;;;;;;;;37.90;25.20;;;;;;5133605;27;19981;-61
2023/10/12 13:05:14;;;;;;;;;;;38.10;25.50;;;;;;5134475;27;20353;-65
2023/10/12 13:07:40;;;;;;;;;;;38.20;24.70;;;;;;5134536;27;20045;-63
2023/10/12 13:10:07;;;;;;;;;;;38.00;25.40;;;;;;5134079;27;20338;-63
2023/10/12 13:12:32;;;;;;;;;;;37.70;23.20;;;;;;5115870;28;20031;-64
2023/10/12 13:15:01;;;;;;;;;;;37.40;24.20;;;;;;5133835;27;19980;-63
2023/10/12 13:17:32;;;;;;;;;;;37.50;24.60;;;;;;5134303;28;19987;-63
2023/10/12 13:19:58;;;;;;;;;;;37.50;25.90;;;;;;5134527;28;20418;-62
2023/10/12 13:22:27;;;;;;;;;;;37.50;26.10;;;;;;5134515;28;19985;-63
2023/10/12 13:24:57;;;;;;;;;;;37.60;27.50;;;;;;5134270;28;19987;-63
2023/10/12 13:27:24;;;;;;;;;;;37.50;24.50;;;;;;5134597;28;20125;-63
2023/10/12 13:29:50;;;;;;;;;;;37.40;25.50;;;;;;5134540;28;19980;-64
2023/10/12 13:32:18;;;;;;;;;;;37.60;26.30;;;;;;5134265;28;20011;-65
2023/10/12 13:34:44;;;;;;;;;;;37.20;28.20;;;;;;5134391;28;20093;-63
2023/10/12 13:37:13;;;;;;;;;;;37.00;26.90;;;;;;5134103;28;20458;-63
2023/10/12 13:39:38;;;;;;;;;;;36.90;26.70;;;;;;5115835;28;20027;-65
2023/10/12 13:42:11;;;;;;;;;;;36.80;28.00;;;;;;5134456;28;20039;-66
2023/10/12 13:44:42;;;;;;;;;;;36.80;28.30;;;;;;5133032;28;20439;-65
2023/10/12 13:47:08;;;;;;;;;;;36.80;27.30;;;;;;5115400;28;20013;-63
2023/10/12 13:49:37;;;;;;;;;;;36.40;27.60;;;;;;5134123;28;20016;-62
2023/10/12 13:52:09;;;;;;;;;;;36.10;27.60;;;;;;5133946;28;20004;-66
2023/10/12 13:54:35;;;;;;;;;;;35.90;28.60;;;;;;5134258;28;20001;-65
2023/10/12 13:57:02;;;;;;;;;;;35.70;28.00;;;;;;5134293;28;20030;-64
2023/10/12 13:59:28;;;;;;;;;;;35.30;28.80;;;;;;5133991;28;19991;-65
2023/10/12 14:01:54;;;;;;;;;;;34.90;28.90;;;;;;5134169;28;19980;-64
2023/10/12 14:04:40;;;;;;;;;;;34.90;29.60;;;;;;5134140;28;19980;-65
2023/10/12 14:07:07;;;;;;;;;;;34.80;28.70;;;;;;5134073;28;20073;-63
2023/10/12 14:09:32;;;;;;;;;;;34.50;29.90;;;;;;5134086;28;19980;-64
2023/10/12 14:11:58;;;;;;;;;;;33.90;29.40;;;;;;5133981;28;20458;-65
2023/10/12 14:14:24;;;;;;;;;;;33.50;30.40;;;;;;5134283;28;19989;-62
2023/10/12 14:16:50;;;;;;;;;;;33.20;31.80;;;;;;5134096;28;19995;-63
2023/10/12 14:19:16;;;;;;;;;;;33.30;30.60;;;;;;5134294;28;20476;-62
2023/10/12 14:21:42;;;;;;;;;;;33.20;30.80;;;;;;5133765;28;19981;-62
2023/10/12 14:24:08;;;;;;;;;;;32.70;31.30;;;;;;5133897;28;19981;-62
2023/10/12 14:26:36;;;;;;;;;;;32.40;31.50;;;;;;5134878;27;20080;-63
2023/10/12 14:29:08;;;;;;;;;;;32.30;32.00;;;;;;5137515;27;20442;-65
2023/10/12 14:31:34;;;;;;;;;;;32.20;31.50;;;;;;5137501;27;20073;-62
2023/10/12 14:33:59;;;;;;;;;;;31.90;32.10;;;;;;5137578;27;20023;-65
2023/10/12 14:36:26;;;;;;;;;;;31.70;32.60;;;;;;5137258;27;19988;-63
2023/10/12 14:38:54;;;;;;;;;;;31.60;32.80;;;;;;5137462;27;20430;-61
2023/10/12 14:41:25;;;;;;;;;;;31.40;33.00;;;;;;5137431;27;20039;-63
2023/10/12 14:43:50;;;;;;;;;;;31.00;33.50;;;;;;5137338;27;19981;-63
2023/10/12 14:46:19;;;;;;;;;;;31.10;34.30;;;;;;5137349;27;20087;-65
2023/10/12 14:48:49;;;;;;;;;;;31.20;34.40;;;;;;5137110;27;20435;-62
2023/10/12 14:51:17;;;;;;;;;;;31.10;34.20;;;;;;5136928;27;20038;-63
2023/10/12 14:53:47;;;;;;;;;;;30.80;34.50;;;;;;5137159;27;19996;-64
2023/10/12 14:56:14;;;;;;;;;;;30.50;35.00;;;;;;5136221;27;20021;-65
2023/10/12 14:58:40;;;;;;;;;;;30.30;35.10;;;;;;5137200;27;19980;-65
2023/10/12 15:01:17;;;;;;;;;;;30.10;35.70;;;;;;5137014;27;19988;-65
2023/10/12 15:03:45;;;;;;;;;;;30.00;36.10;;;;;;5136946;27;20349;-61
2023/10/12 15:06:12;;;;;;;;;;;29.80;36.80;;;;;;5136917;27;19981;-62
2023/10/12 15:08:38;;;;;;;;;;;29.60;37.00;;;;;;5136864;27;20033;-64
2023/10/12 15:11:07;;;;;;;;;;;29.50;37.30;;;;;;5136711;27;20447;-63
2023/10/12 15:13:33;;;;;;;;;;;29.10;38.10;;;;;;5136864;27;19980;-65
2023/10/12 15:15:58;;;;;;;;;;;28.70;39.20;;;;;;5136729;27;20003;-65
2023/10/12 15:18:24;;;;;;;;;;;28.40;40.30;;;;;;5136422;27;20450;-63
2023/10/12 15:20:55;;;;;;;;;;;28.20;41.60;;;;;;5136758;27;19980;-64
2023/10/12 15:23:27;;;;;;;;;;;28.00;42.10;;;;;;5136585;27;19988;-64
2023/10/12 15:25:56;;;;;;;;;;;27.80;42.80;;;;;;5136484;27;20357;-63
2023/10/12 15:28:22;;;;;;;;;;;27.50;43.40;;;;;;5136631;27;20063;-61
2023/10/12 15:30:47;;;;;;;;;;;27.40;44.70;;;;;;5136376;27;20441;-63
2023/10/12 15:33:13;;;;;;;;;;;27.20;45.10;;;;;;5136345;27;19990;-63
2023/10/12 15:35:40;;;;;;;;;;;27.10;45.60;;;;;;5136213;27;19987;-64
2023/10/12 15:38:05;;;;;;;;;;;27.00;45.90;;;;;;5117433;27;20473;-62
2023/10/12 15:40:32;;;;;;;;;;;26.90;46.00;;;;;;5135919;27;19981;-63
2023/10/12 15:42:59;;;;;;;;;;;26.80;47.30;;;;;;5136283;27;19980;-62
2023/10/12 15:45:25;;;;;;;;;;;26.60;47.20;;;;;;5136000;27;19985;-63
2023/10/12 15:47:51;;;;;;;;;;;26.60;47.70;;;;;;5136062;27;19981;-62
2023/10/12 15:50:17;;;;;;;;;;;26.50;48.00;;;;;;5135711;27;20434;-64
2023/10/12 15:52:43;;;;;;;;;;;26.40;48.50;;;;;;5135871;27;20004;-64
2023/10/12 15:55:12;;;;;;;;;;;26.40;48.40;;;;;;5135800;27;20454;-65
2023/10/12 15:57:44;;;;;;;;;;;26.40;48.40;;;;;;5136310;27;19980;-64
2023/10/12 16:00:22;;;;;;;;;;;26.40;48.60;;;;;;5135916;27;20460;-63
2023/10/12 16:02:55;;;;;;;;;;;26.50;48.50;;;;;;5135570;27;20359;-63
2023/10/12 16:05:22;;;;;;;;;;;26.60;49.00;;;;;;5117326;27;20357;-64
2023/10/12 16:07:48;;;;;;;;;;;26.60;48.80;;;;;;5135613;27;20019;-65
2023/10/12 16:10:17;;;;;;;;;;;26.50;49.20;;;;;;5135621;27;20041;-63
2023/10/12 16:12:44;;;;;;;;;;;26.30;49.90;;;;;;5135618;27;20012;-62
2023/10/12 16:15:12;;;;;;;;;;;26.30;49.90;;;;;;5135495;27;19987;-64
2023/10/12 16:17:38;;;;;;;;;;;26.20;50.00;;;;;;5116886;27;19993;-63